createdAt,value
2017-05-02T04:00:41.946Z,97.83
2017-05-02T04:01:07.384Z,98.12
2017-05-02T04:01:32.858Z,98.12
2017-05-02T04:01:58.328Z,98.12
2017-05-02T04:02:23.820Z,97.83
2017-05-02T04:02:49.269Z,98.03
2017-05-02T04:03:14.761Z,97.93
2017-05-02T04:03:40.269Z,97.83
2017-05-02T04:04:05.720Z,97.93
2017-05-02T04:04:31.204Z,98.03
2017-05-02T04:04:56.664Z,97.64
2017-05-02T04:05:22.146Z,98.69
2017-05-02T04:05:47.641Z,98.69
2017-05-02T04:06:13.092Z,98.5
2017-05-02T04:06:38.614Z,98.6
2017-05-02T04:07:04.079Z,98.6
2017-05-02T04:07:29.514Z,98.79
2017-05-02T04:07:54.979Z,98.12
2017-05-02T04:08:20.468Z,98.31
2017-05-02T04:08:45.962Z,98.12
2017-05-02T04:09:11.469Z,98.41
2017-05-02T04:09:36.895Z,98.12
2017-05-02T04:10:02.381Z,98.31
2017-05-02T04:10:27.826Z,98.31
2017-05-02T04:10:53.307Z,98.41
2017-05-02T04:11:18.707Z,98.31
2017-05-02T04:11:44.170Z,98.41
2017-05-02T04:12:09.669Z,98.5
2017-05-02T04:12:35.127Z,98.41
2017-05-02T04:13:00.604Z,98.31
2017-05-02T04:13:26.082Z,98.22
2017-05-02T04:13:51.544Z,98.31
2017-05-02T04:14:16.979Z,98.12
2017-05-02T04:14:42.474Z,98.31
2017-05-02T04:15:07.917Z,98.22
2017-05-02T04:15:33.368Z,98.6
2017-05-02T04:15:58.825Z,98.22
2017-05-02T04:16:24.257Z,98.22
2017-05-02T04:16:49.743Z,98.31
2017-05-02T04:17:15.203Z,98.31
2017-05-02T04:17:40.661Z,98.5
2017-05-02T04:18:06.108Z,98.31
2017-05-02T04:18:31.571Z,98.31
2017-05-02T04:18:57.057Z,98.31
2017-05-02T04:19:22.534Z,98.31
2017-05-02T04:19:47.969Z,98.31
2017-05-02T04:20:13.447Z,98.36
2017-05-02T04:20:38.870Z,98.31
2017-05-02T04:21:04.344Z,98.41
2017-05-02T04:21:29.814Z,98.31
2017-05-02T04:21:55.310Z,98.31
2017-05-02T04:22:20.813Z,98.12
2017-05-02T04:22:46.314Z,97.93
2017-05-02T04:23:11.803Z,98.12
2017-05-02T04:23:37.277Z,98.5
2017-05-02T04:24:02.761Z,98.22
2017-05-02T04:24:28.246Z,98.22
2017-05-02T04:24:53.711Z,98.88
2017-05-02T04:25:19.206Z,98.5
2017-05-02T04:25:44.689Z,98.5
2017-05-02T04:26:10.189Z,98.5
2017-05-02T04:26:35.654Z,98.5
2017-05-02T04:27:01.141Z,98.6
2017-05-02T04:27:26.603Z,98.69
2017-05-02T04:27:52.075Z,98.79
2017-05-02T04:28:17.576Z,98.31
2017-05-02T04:28:43.104Z,98.31
2017-05-02T04:29:08.572Z,98.41
2017-05-02T04:29:34.052Z,98.5
2017-05-02T04:29:59.529Z,98.41
2017-05-02T04:30:24.986Z,98.31
2017-05-02T04:30:50.454Z,98.79
2017-05-02T04:31:15.922Z,98.6
2017-05-02T04:31:41.407Z,98.6
2017-05-02T04:32:06.894Z,98.31
2017-05-02T04:32:32.358Z,98.69
2017-05-02T04:32:57.843Z,98.41
2017-05-02T04:33:23.284Z,98.5
2017-05-02T04:33:48.744Z,98.5
2017-05-02T04:34:14.206Z,98.5
2017-05-02T04:34:39.699Z,98.6
2017-05-02T04:35:05.152Z,98.79
2017-05-02T04:35:30.638Z,98.79
2017-05-02T04:35:56.107Z,98.5
2017-05-02T04:36:21.565Z,98.31
2017-05-02T04:36:47.073Z,99.07
2017-05-02T04:37:12.513Z,98.5
2017-05-02T04:37:37.993Z,98.5
2017-05-02T04:38:03.464Z,98.55
2017-05-02T04:38:28.930Z,98.5
2017-05-02T04:38:54.401Z,99.16
2017-05-02T04:39:19.854Z,98.6
2017-05-02T04:39:45.303Z,98.55
2017-05-02T04:40:10.787Z,98.69
2017-05-02T04:40:36.233Z,98.69
2017-05-02T04:41:01.733Z,98.88
2017-05-02T04:41:27.177Z,98.79
2017-05-02T04:41:52.643Z,98.97
2017-05-02T04:42:18.120Z,99.36
2017-05-02T04:42:43.592Z,99.22
2017-05-02T04:43:09.057Z,99.02
2017-05-02T04:43:34.528Z,98.97
2017-05-02T04:43:59.997Z,99.16
2017-05-02T04:44:25.471Z,99.31
2017-05-02T04:44:50.923Z,98.83
2017-05-02T04:45:16.386Z,98.88
2017-05-02T04:45:41.908Z,98.83
2017-05-02T04:46:07.401Z,98.93
2017-05-02T04:46:32.870Z,98.93
2017-05-02T04:46:58.325Z,98.83
2017-05-02T04:47:23.790Z,98.93
2017-05-02T04:47:49.253Z,98.93
2017-05-02T04:48:14.713Z,98.83
2017-05-02T04:48:40.224Z,98.74
2017-05-02T04:49:05.734Z,98.69
2017-05-02T04:49:31.169Z,98.83
2017-05-02T04:49:56.645Z,98.83
2017-05-02T04:50:22.131Z,98.83
2017-05-02T04:50:47.599Z,98.83
2017-05-02T04:51:13.063Z,98.88
2017-05-02T04:51:38.565Z,98.83
2017-05-02T04:52:04.027Z,98.97
2017-05-02T04:52:29.493Z,99.12
2017-05-02T04:52:54.962Z,98.83
2017-05-02T04:53:20.447Z,98.74
2017-05-02T04:53:45.999Z,98.93
2017-05-02T04:54:11.354Z,99.41
2017-05-02T04:54:36.851Z,99.02
2017-05-02T04:55:02.327Z,98.93
2017-05-02T04:55:27.794Z,99.41
2017-05-02T04:55:53.398Z,99.12
2017-05-02T04:56:18.891Z,99.6
2017-05-02T04:56:44.351Z,99.02
2017-05-02T04:57:09.838Z,99.31
2017-05-02T04:57:35.333Z,99.31
2017-05-02T04:58:00.809Z,99.22
2017-05-02T04:58:26.323Z,99.22
2017-05-02T04:58:51.800Z,99.5
2017-05-02T04:59:17.217Z,99.5
2017-05-02T04:59:42.733Z,99.22
2017-05-02T05:00:08.176Z,99.22
2017-05-02T05:00:33.653Z,99.31
2017-05-02T05:00:59.137Z,99.12
2017-05-02T05:01:24.626Z,99.41
2017-05-02T05:01:50.099Z,99.41
2017-05-02T05:02:15.546Z,99.41
2017-05-02T05:02:41.015Z,99.22
2017-05-02T05:03:06.485Z,99.41
2017-05-02T05:03:31.943Z,99.41
2017-05-02T05:03:57.427Z,99.41
2017-05-02T05:04:22.897Z,99.12
2017-05-02T05:04:48.343Z,98.93
2017-05-02T05:05:13.819Z,99.22
2017-05-02T05:05:39.265Z,99.02
2017-05-02T05:06:04.727Z,99.12
2017-05-02T05:06:30.180Z,99.22
2017-05-02T05:06:55.664Z,99.22
2017-05-02T05:07:21.120Z,99.12
2017-05-02T05:07:46.566Z,99.22
2017-05-02T05:08:12.020Z,99.12
2017-05-02T05:08:37.480Z,99.02
2017-05-02T05:09:02.948Z,99.22
2017-05-02T05:09:28.403Z,99.31
2017-05-02T05:09:53.862Z,99.22
2017-05-02T05:10:19.331Z,99.02
2017-05-02T05:10:44.805Z,99.02
2017-05-02T05:11:10.271Z,99.02
2017-05-02T05:11:35.734Z,98.93
2017-05-02T05:12:01.198Z,99.22
2017-05-02T05:12:26.716Z,99.22
2017-05-02T05:12:52.179Z,99.02
2017-05-02T05:13:17.617Z,99.41
2017-05-02T05:13:43.072Z,99.41
2017-05-02T05:14:08.557Z,99.41
2017-05-02T05:14:33.986Z,98.93
2017-05-02T05:14:59.460Z,99.41
2017-05-02T05:15:24.951Z,99.12
2017-05-02T05:15:50.418Z,99.02
2017-05-02T05:16:15.857Z,99.02
2017-05-02T05:16:41.329Z,99.02
2017-05-02T05:17:06.781Z,99.02
2017-05-02T05:17:32.253Z,99.22
2017-05-02T05:17:57.721Z,98.93
2017-05-02T05:18:23.240Z,99.22
2017-05-02T05:18:48.698Z,99.12
2017-05-02T05:19:14.191Z,99.5
2017-05-02T05:19:39.645Z,99.12
2017-05-02T05:20:05.149Z,99.41
2017-05-02T05:20:30.602Z,99.5
2017-05-02T05:20:56.100Z,99.5
2017-05-02T05:21:21.567Z,99.41
2017-05-02T05:21:47.001Z,99.5
2017-05-02T05:22:12.472Z,99.31
2017-05-02T05:22:37.936Z,99.31
2017-05-02T05:23:03.403Z,99.31
2017-05-02T05:23:28.898Z,99.31
2017-05-02T05:23:54.312Z,99.41
2017-05-02T05:24:19.800Z,99.22
2017-05-02T05:24:45.265Z,99.22
2017-05-02T05:25:10.703Z,99.41
2017-05-02T05:25:36.183Z,99.22
2017-05-02T05:26:01.653Z,99.12
2017-05-02T05:26:27.128Z,99.41
2017-05-02T05:26:52.583Z,99.22
2017-05-02T05:27:18.093Z,99.31
2017-05-02T05:27:43.557Z,99.41
2017-05-02T05:28:08.989Z,99.02
2017-05-02T05:28:34.447Z,98.93
2017-05-02T05:28:59.916Z,99.12
2017-05-02T05:29:25.384Z,99.02
2017-05-02T05:29:50.869Z,99.02
2017-05-02T05:30:16.282Z,99.02
2017-05-02T05:30:41.738Z,99.12
2017-05-02T05:31:07.246Z,99.41
2017-05-02T05:31:32.674Z,99.5
2017-05-02T05:31:58.202Z,99.12
2017-05-02T05:32:23.643Z,99.22
2017-05-02T05:32:49.095Z,99.02
2017-05-02T05:33:14.568Z,99.22
2017-05-02T05:33:40.058Z,99.02
2017-05-02T05:34:05.528Z,99.22
2017-05-02T05:34:30.979Z,99.22
2017-05-02T05:34:56.476Z,99.22
2017-05-02T05:35:21.940Z,98.93
2017-05-02T05:35:47.430Z,98.83
2017-05-02T05:36:12.900Z,99.12
2017-05-02T05:36:38.334Z,99.41
2017-05-02T05:37:03.833Z,99.22
2017-05-02T05:37:29.315Z,99.31
2017-05-02T05:37:54.770Z,99.41
2017-05-02T05:38:20.247Z,99.5
2017-05-02T05:38:45.694Z,99.41
2017-05-02T05:39:11.162Z,99.41
2017-05-02T05:39:36.608Z,99.22
2017-05-02T05:40:02.109Z,99.41
2017-05-02T05:40:27.557Z,99.99
2017-05-02T05:40:53.024Z,99.88
2017-05-02T05:41:18.462Z,99.99
2017-05-02T05:41:43.943Z,99.98
2017-05-02T05:42:09.379Z,99.88
2017-05-02T05:42:34.879Z,99.99
2017-05-02T05:43:00.341Z,99.79
2017-05-02T05:43:25.808Z,99.79
2017-05-02T05:43:51.264Z,99.79
2017-05-02T05:44:16.751Z,99.88
2017-05-02T05:44:42.225Z,99.99
2017-05-02T05:45:07.695Z,99.98
2017-05-02T05:45:33.138Z,99.88
2017-05-02T05:45:58.615Z,99.98
2017-05-02T05:46:24.083Z,99.99
2017-05-02T05:46:49.579Z,99.99
2017-05-02T05:47:15.017Z,99.88
2017-05-02T05:47:40.457Z,99.79
2017-05-02T05:48:05.909Z,99.98
2017-05-02T05:48:31.366Z,99.88
2017-05-02T05:48:56.840Z,99.98
2017-05-02T05:49:22.315Z,99.98
2017-05-02T05:49:47.828Z,99.98
2017-05-02T05:50:13.307Z,99.69
2017-05-02T05:50:38.762Z,99.93
2017-05-02T05:51:04.204Z,99.84
2017-05-02T05:51:29.654Z,99.65
2017-05-02T05:51:55.086Z,99.65
2017-05-02T05:52:20.559Z,99.65
2017-05-02T05:52:46.021Z,99.84
2017-05-02T05:53:11.464Z,99.93
2017-05-02T05:53:36.933Z,99.84
2017-05-02T05:54:02.400Z,99.74
2017-05-02T05:54:27.874Z,99.74
2017-05-02T05:54:53.316Z,99.65
2017-05-02T05:55:18.825Z,99.65
2017-05-02T05:55:44.260Z,99.93
2017-05-02T05:56:09.722Z,99.74
2017-05-02T05:56:35.232Z,99.99
2017-05-02T05:57:00.674Z,99.93
2017-05-02T05:57:26.161Z,99.99
2017-05-02T05:57:51.607Z,99.99
2017-05-02T05:58:17.123Z,99.99
2017-05-02T05:58:42.573Z,99.84
2017-05-02T05:59:08.017Z,99.93
2017-05-02T05:59:33.461Z,99.84
2017-05-02T05:59:58.928Z,99.93
2017-05-02T06:00:24.388Z,99.99
2017-05-02T06:00:49.875Z,99.99
2017-05-02T06:01:15.353Z,99.84
2017-05-02T06:01:40.858Z,99.84
2017-05-02T06:02:06.297Z,99.99
2017-05-02T06:02:31.763Z,99.99
2017-05-02T06:02:57.217Z,99.93
2017-05-02T06:03:22.707Z,99.74
2017-05-02T06:03:48.163Z,99.74
2017-05-02T06:04:13.630Z,99.99
2017-05-02T06:04:39.085Z,99.74
2017-05-02T06:05:04.568Z,99.99
2017-05-02T06:05:30.060Z,99.99
2017-05-02T06:05:55.495Z,99.99
2017-05-02T06:06:20.989Z,99.93
2017-05-02T06:06:46.463Z,99.93
2017-05-02T06:07:11.948Z,99.99
2017-05-02T06:07:37.409Z,99.93
2017-05-02T06:08:02.891Z,99.99
2017-05-02T06:08:28.343Z,99.99
2017-05-02T06:08:53.787Z,99.99
2017-05-02T06:09:19.268Z,99.74
2017-05-02T06:09:44.739Z,99.74
2017-05-02T06:10:10.205Z,99.99
2017-05-02T06:10:35.674Z,99.84
2017-05-02T06:11:01.138Z,99.65
2017-05-02T06:11:26.593Z,99.84
2017-05-02T06:11:52.118Z,99.93
2017-05-02T06:12:17.586Z,99.84
2017-05-02T06:12:43.060Z,99.93
2017-05-02T06:13:08.544Z,99.84
2017-05-02T06:13:34.058Z,99.93
2017-05-02T06:13:59.506Z,99.84
2017-05-02T06:14:24.953Z,99.93
2017-05-02T06:14:50.437Z,99.93
2017-05-02T06:15:15.898Z,99.93
2017-05-02T06:15:41.393Z,99.99
2017-05-02T06:16:06.854Z,99.99
2017-05-02T06:16:32.331Z,99.46
2017-05-02T06:16:57.825Z,99.46
2017-05-02T06:17:23.306Z,99.27
2017-05-02T06:17:48.751Z,99.55
2017-05-02T06:18:14.233Z,99.17
2017-05-02T06:18:39.701Z,99.27
2017-05-02T06:19:05.197Z,99.46
2017-05-02T06:19:30.638Z,99.65
2017-05-02T06:19:56.119Z,99.65
2017-05-02T06:20:21.606Z,99.36
2017-05-02T06:20:47.084Z,99.17
2017-05-02T06:21:12.583Z,99.08
2017-05-02T06:21:38.017Z,99.27
2017-05-02T06:22:03.510Z,99.08
2017-05-02T06:22:29.035Z,99.27
2017-05-02T06:22:54.436Z,99.08
2017-05-02T06:23:19.952Z,99.02
2017-05-02T06:23:45.383Z,99.27
2017-05-02T06:24:10.846Z,98.98
2017-05-02T06:24:36.316Z,99.36
2017-05-02T06:25:01.781Z,99.36
2017-05-02T06:25:27.257Z,99.46
2017-05-02T06:25:52.698Z,99.99
2017-05-02T06:26:18.175Z,99.84
2017-05-02T06:26:43.652Z,99.84
2017-05-02T06:27:09.139Z,99.99
2017-05-02T06:27:34.589Z,99.84
2017-05-02T06:28:00.053Z,99.99
2017-05-02T06:28:25.530Z,99.99
2017-05-02T06:28:50.995Z,99.93
2017-05-02T06:29:16.453Z,99.99
2017-05-02T06:29:41.918Z,99.99
2017-05-02T06:30:07.370Z,99.99
2017-05-02T06:30:32.858Z,99.93
2017-05-02T06:30:58.328Z,99.99
2017-05-02T06:31:23.789Z,99.74
2017-05-02T06:31:49.251Z,99.84
2017-05-02T06:32:14.731Z,99.99
2017-05-02T06:32:40.219Z,99.84
2017-05-02T06:33:05.646Z,99.84
2017-05-02T06:33:31.129Z,99.99
2017-05-02T06:33:56.588Z,99.99
2017-05-02T06:34:22.060Z,99.74
2017-05-02T06:34:47.511Z,99.93
2017-05-02T06:35:13.001Z,99.84
2017-05-02T06:35:38.466Z,99.84
2017-05-02T06:36:03.920Z,99.84
2017-05-02T06:36:29.420Z,99.65
2017-05-02T06:36:54.877Z,99.93
2017-05-02T06:37:20.349Z,99.84
2017-05-02T06:37:45.789Z,99.65
2017-05-02T06:38:11.284Z,99.93
2017-05-02T06:38:36.973Z,99.65
2017-05-02T06:39:02.441Z,99.84
2017-05-02T06:39:27.906Z,99.65
2017-05-02T06:39:53.375Z,99.93
2017-05-02T06:40:18.870Z,99.84
2017-05-02T06:40:44.325Z,99.65
2017-05-02T06:41:09.793Z,99.93
2017-05-02T06:41:35.269Z,99.84
2017-05-02T06:42:00.768Z,99.84
2017-05-02T06:42:26.219Z,99.65
2017-05-02T06:42:51.684Z,99.65
2017-05-02T06:43:17.162Z,99.84
2017-05-02T06:43:42.618Z,99.84
2017-05-02T06:44:08.109Z,99.84
2017-05-02T06:44:33.586Z,99.84
2017-05-02T06:44:59.037Z,99.84
2017-05-02T06:45:24.538Z,99.84
2017-05-02T06:45:50.038Z,99.93
2017-05-02T06:46:15.464Z,99.93
2017-05-02T06:46:40.941Z,99.84
2017-05-02T06:47:06.429Z,99.93
2017-05-02T06:47:31.905Z,99.93
2017-05-02T06:47:57.358Z,99.99
2017-05-02T06:48:22.820Z,99.99
2017-05-02T06:48:48.301Z,99.99
2017-05-02T06:49:13.774Z,99.99
2017-05-02T06:49:39.206Z,99.27
2017-05-02T06:50:04.699Z,99.65
2017-05-02T06:50:30.203Z,99.99
2017-05-02T06:50:55.651Z,99.99
2017-05-02T06:51:21.109Z,99.55
2017-05-02T06:51:46.565Z,99.55
2017-05-02T06:52:12.115Z,99.93
2017-05-02T06:52:37.580Z,99.55
2017-05-02T06:53:03.026Z,99.65
2017-05-02T06:53:28.479Z,99.99
2017-05-02T06:53:53.939Z,99.55
2017-05-02T06:54:19.382Z,99.65
2017-05-02T06:54:44.987Z,99.65
2017-05-02T06:55:10.397Z,99.65
2017-05-02T06:55:35.865Z,99.46
2017-05-02T06:56:01.361Z,99.55
2017-05-02T06:56:26.810Z,99.99
2017-05-02T06:56:52.275Z,99.99
2017-05-02T06:57:17.743Z,99.99
2017-05-02T06:57:43.242Z,99.99
2017-05-02T06:58:08.642Z,99.99
2017-05-02T06:58:34.108Z,99.99
2017-05-02T06:58:59.600Z,99.99
2017-05-02T06:59:25.041Z,99.65
2017-05-02T06:59:50.524Z,99.99
2017-05-02T07:00:15.950Z,99.55
2017-05-02T07:00:41.438Z,99.65
2017-05-02T07:01:06.886Z,99.65
2017-05-02T07:01:32.348Z,99.99
2017-05-02T07:01:57.812Z,99.99
2017-05-02T07:02:23.299Z,99.36
2017-05-02T07:02:48.771Z,99.55
2017-05-02T07:03:14.240Z,99.55
2017-05-02T07:03:39.706Z,99.36
2017-05-02T07:04:05.211Z,99.55
2017-05-02T07:04:30.632Z,99.99
2017-05-02T07:04:56.096Z,99.99
2017-05-02T07:05:21.580Z,99.99
2017-05-02T07:05:47.085Z,99.99
2017-05-02T07:06:12.545Z,99.55
2017-05-02T07:06:38.053Z,99.55
2017-05-02T07:07:03.618Z,99.69
2017-05-02T07:07:29.085Z,99.74
2017-05-02T07:07:54.546Z,99.55
2017-05-02T07:08:20.042Z,99.93
2017-05-02T07:08:45.484Z,99.99
2017-05-02T07:09:10.976Z,99.89
2017-05-02T07:09:36.432Z,99.99
2017-05-02T07:10:01.891Z,99.99
2017-05-02T07:10:27.342Z,99.99
2017-05-02T07:10:52.842Z,99.99
2017-05-02T07:11:18.286Z,99.99
2017-05-02T07:11:43.752Z,99.99
2017-05-02T07:12:09.214Z,99.99
2017-05-02T07:12:34.691Z,99.99
2017-05-02T07:13:00.167Z,99.99
2017-05-02T07:13:25.629Z,99.99
2017-05-02T07:13:51.135Z,99.99
2017-05-02T07:14:16.597Z,99.99
2017-05-02T07:14:42.083Z,99.79
2017-05-02T07:15:07.537Z,99.89
2017-05-02T07:15:33.013Z,99.89
2017-05-02T07:15:58.481Z,99.79
2017-05-02T07:16:23.973Z,99.89
2017-05-02T07:16:49.452Z,99.99
2017-05-02T07:17:14.926Z,99.99
2017-05-02T07:17:40.382Z,99.99
2017-05-02T07:18:05.867Z,99.99
2017-05-02T07:18:31.333Z,99.98
2017-05-02T07:18:56.848Z,99.99
2017-05-02T07:19:22.259Z,99.79
2017-05-02T07:19:47.719Z,99.99
2017-05-02T07:20:13.191Z,99.99
2017-05-02T07:20:38.648Z,99.99
2017-05-02T07:21:04.107Z,99.51
2017-05-02T07:21:29.581Z,99.99
2017-05-02T07:21:55.030Z,99.89
2017-05-02T07:22:20.533Z,99.99
2017-05-02T07:22:45.972Z,99.99
2017-05-02T07:23:11.415Z,99.99
2017-05-02T07:23:36.869Z,99.99
2017-05-02T07:24:02.337Z,99.99
2017-05-02T07:24:27.779Z,99.99
2017-05-02T07:24:53.249Z,99.99
2017-05-02T07:25:18.704Z,99.99
2017-05-02T07:25:44.205Z,99.84
2017-05-02T07:26:09.668Z,99.99
2017-05-02T07:26:35.147Z,99.99
2017-05-02T07:27:00.622Z,99.99
2017-05-02T07:27:26.081Z,99.99
2017-05-02T07:27:51.529Z,99.99
2017-05-02T07:28:17.018Z,99.99
2017-05-02T07:28:42.471Z,99.99
2017-05-02T07:29:07.921Z,99.99
2017-05-02T07:29:33.422Z,99.99
2017-05-02T07:29:58.859Z,99.99
2017-05-02T07:30:24.340Z,99.99
2017-05-02T07:30:49.781Z,99.99
2017-05-02T07:31:15.267Z,99.99
2017-05-02T07:31:40.769Z,99.99
2017-05-02T07:32:06.222Z,99.99
2017-05-02T07:32:31.675Z,99.99
2017-05-02T07:32:57.146Z,99.99
2017-05-02T07:33:22.593Z,99.99
2017-05-02T07:33:48.040Z,99.99
2017-05-02T07:34:13.523Z,99.99
2017-05-02T07:34:39.000Z,99.99
2017-05-02T07:35:04.504Z,99.99
2017-05-02T07:35:30.003Z,99.99
2017-05-02T07:35:55.488Z,99.99
2017-05-02T07:36:20.969Z,99.99
2017-05-02T07:36:46.419Z,99.99
2017-05-02T07:37:11.877Z,99.99
2017-05-02T07:37:37.354Z,99.99
2017-05-02T07:38:02.798Z,99.99
2017-05-02T07:38:28.265Z,99.99
2017-05-02T07:38:53.725Z,99.99
2017-05-02T07:39:19.188Z,99.99
2017-05-02T07:39:44.651Z,99.99
2017-05-02T07:40:10.141Z,99.99
2017-05-02T07:40:35.634Z,99.99
2017-05-02T07:41:01.057Z,99.99
2017-05-02T07:41:26.554Z,99.99
2017-05-02T07:41:52.027Z,99.99
2017-05-02T07:42:17.514Z,99.99
2017-05-02T07:42:42.967Z,99.99
2017-05-02T07:43:08.446Z,99.99
2017-05-02T07:43:33.909Z,99.99
2017-05-02T07:43:59.388Z,99.99
2017-05-02T07:44:24.837Z,99.99
2017-05-02T07:44:50.294Z,99.99
2017-05-02T07:45:15.777Z,99.99
2017-05-02T07:45:41.246Z,99.99
2017-05-02T07:46:06.724Z,99.99
2017-05-02T07:46:32.211Z,99.99
2017-05-02T07:46:57.681Z,99.99
2017-05-02T07:47:23.165Z,99.99
2017-05-02T07:47:48.627Z,99.99
2017-05-02T07:48:14.070Z,99.99
2017-05-02T07:48:39.562Z,99.8
2017-05-02T07:49:05.025Z,99.71
2017-05-02T07:49:30.517Z,99.42
2017-05-02T07:49:55.975Z,99.61
2017-05-02T07:50:21.437Z,99.32
2017-05-02T07:50:46.915Z,99.32
2017-05-02T07:51:12.384Z,99.71
2017-05-02T07:51:37.845Z,99.32
2017-05-02T07:52:03.325Z,99.52
2017-05-02T07:52:28.743Z,99.52
2017-05-02T07:52:54.222Z,99.71
2017-05-02T07:53:19.672Z,99.9
2017-05-02T07:53:45.133Z,99.61
2017-05-02T07:54:10.608Z,99.9
2017-05-02T07:54:36.057Z,99.13
2017-05-02T07:55:01.530Z,99.32
2017-05-02T07:55:26.981Z,99.61
2017-05-02T07:55:52.405Z,99.42
2017-05-02T07:56:17.869Z,99.04
2017-05-02T07:56:43.325Z,99.13
2017-05-02T07:57:08.791Z,99.52
2017-05-02T07:57:34.275Z,99.32
2017-05-02T07:57:59.745Z,99.52
2017-05-02T07:58:25.226Z,99.61
2017-05-02T07:58:50.723Z,99.32
2017-05-02T07:59:16.171Z,99.23
2017-05-02T07:59:41.649Z,99.23
2017-05-02T08:00:07.144Z,99.13
2017-05-02T08:00:32.638Z,98.56
2017-05-02T08:00:58.091Z,98.66
2017-05-02T08:01:23.587Z,98.18
2017-05-02T08:01:49.048Z,97.89
2017-05-02T08:02:14.501Z,98.27
2017-05-02T08:02:39.992Z,98.18
2017-05-02T08:03:05.495Z,98.18
2017-05-02T08:03:30.946Z,97.99
2017-05-02T08:03:56.406Z,98.37
2017-05-02T08:04:21.890Z,98.08
2017-05-02T08:04:47.320Z,97.8
2017-05-02T08:05:12.801Z,98.27
2017-05-02T08:05:38.247Z,97.61
2017-05-02T08:06:03.698Z,98.27
2017-05-02T08:06:29.187Z,98.66
2017-05-02T08:06:54.626Z,98.75
2017-05-02T08:07:20.166Z,97.8
2017-05-02T08:07:45.623Z,97.85
2017-05-02T08:08:11.110Z,97.99
2017-05-02T08:08:36.569Z,97.13
2017-05-02T08:09:02.085Z,97.42
2017-05-02T08:09:27.506Z,97.22
2017-05-02T08:09:52.969Z,96.94
2017-05-02T08:10:18.438Z,96.75
2017-05-02T08:10:43.905Z,97.03
2017-05-02T08:11:09.389Z,96.75
2017-05-02T08:11:34.843Z,96.94
2017-05-02T08:12:00.311Z,97.03
2017-05-02T08:12:25.777Z,96.94
2017-05-02T08:12:51.232Z,96.75
2017-05-02T08:13:16.707Z,96.56
2017-05-02T08:13:42.182Z,96.56
2017-05-02T08:14:07.611Z,97.22
2017-05-02T08:14:33.085Z,96.66
2017-05-02T08:14:58.528Z,96.94
2017-05-02T08:15:24.009Z,96.75
2017-05-02T08:15:49.475Z,97.03
2017-05-02T08:16:14.991Z,97.03
2017-05-02T08:16:40.392Z,96.94
2017-05-02T08:17:05.857Z,97.13
2017-05-02T08:17:31.365Z,97.03
2017-05-02T08:17:56.776Z,97.03
2017-05-02T08:18:22.300Z,96.56
2017-05-02T08:18:47.778Z,96.56
2017-05-02T08:19:13.225Z,96.75
2017-05-02T08:19:38.713Z,96.46
2017-05-02T08:20:04.167Z,96.37
2017-05-02T08:20:29.633Z,96.46
2017-05-02T08:20:55.096Z,96.37
2017-05-02T08:21:20.540Z,96.46
2017-05-02T08:21:46.001Z,96.37
2017-05-02T08:22:11.441Z,96.46
2017-05-02T08:22:36.918Z,96.37
2017-05-02T08:23:02.382Z,96.46
2017-05-02T08:23:27.854Z,96.17
2017-05-02T08:23:53.326Z,96.56
2017-05-02T08:24:18.778Z,96.56
2017-05-02T08:24:44.232Z,96.84
2017-05-02T08:25:09.686Z,96.75
2017-05-02T08:25:35.161Z,96.75
2017-05-02T08:26:00.625Z,96.66
2017-05-02T08:26:26.113Z,97.13
2017-05-02T08:26:51.586Z,97.18
2017-05-02T08:27:17.070Z,97.13
2017-05-02T08:27:42.534Z,97.13
2017-05-02T08:28:07.999Z,96.94
2017-05-02T08:28:33.495Z,97.13
2017-05-02T08:28:58.904Z,97.27
2017-05-02T08:29:24.401Z,96.89
2017-05-02T08:29:49.885Z,96.8
2017-05-02T08:30:15.353Z,97.08
2017-05-02T08:30:40.856Z,97.18
2017-05-02T08:31:06.317Z,96.8
2017-05-02T08:31:31.779Z,97.37
2017-05-02T08:31:57.272Z,97.47
2017-05-02T08:32:22.763Z,96.51
2017-05-02T08:32:48.221Z,96.32
2017-05-02T08:33:13.691Z,96.22
2017-05-02T08:33:39.154Z,96.13
2017-05-02T08:34:04.647Z,96.13
2017-05-02T08:34:30.112Z,96.13
2017-05-02T08:34:55.589Z,96.13
2017-05-02T08:35:21.091Z,96.03
2017-05-02T08:35:46.568Z,95.46
2017-05-02T08:36:12.045Z,96.22
2017-05-02T08:36:37.516Z,96.42
2017-05-02T08:37:03.028Z,96.32
2017-05-02T08:37:28.486Z,95.84
2017-05-02T08:37:54.003Z,95.84
2017-05-02T08:38:19.473Z,96.32
2017-05-02T08:38:44.978Z,96.22
2017-05-02T08:39:10.467Z,96.22
2017-05-02T08:39:35.934Z,96.13
2017-05-02T08:40:01.414Z,96.13
2017-05-02T08:40:26.919Z,96.13
2017-05-02T08:40:52.395Z,96.42
2017-05-02T08:41:17.860Z,96.22
2017-05-02T08:41:43.330Z,96.22
2017-05-02T08:42:08.801Z,96.32
2017-05-02T08:42:34.263Z,96.46
2017-05-02T08:42:59.725Z,96.75
2017-05-02T08:43:25.198Z,96.17
2017-05-02T08:43:50.669Z,96.17
2017-05-02T08:44:16.140Z,95.89
2017-05-02T08:44:41.616Z,95.41
2017-05-02T08:45:07.108Z,95.32
2017-05-02T08:45:32.609Z,95.61
2017-05-02T08:45:58.110Z,95.46
2017-05-02T08:46:23.658Z,95.51
2017-05-02T08:46:49.161Z,94.98
2017-05-02T08:47:14.622Z,94.98
2017-05-02T08:47:40.100Z,94.93
2017-05-02T08:48:05.618Z,94.79
2017-05-02T08:48:31.073Z,94.51
2017-05-02T08:48:56.575Z,94.74
2017-05-02T08:49:22.039Z,94.31
2017-05-02T08:49:47.519Z,94.22
2017-05-02T08:50:13.008Z,94.79
2017-05-02T08:50:38.514Z,94.31
2017-05-02T08:51:04.000Z,94.12
2017-05-02T08:51:29.489Z,94.12
2017-05-02T08:51:54.944Z,94.7
2017-05-02T08:52:20.420Z,94.6
2017-05-02T08:52:45.901Z,94.7
2017-05-02T08:53:11.399Z,94.6
2017-05-02T08:53:36.893Z,94.51
2017-05-02T08:54:02.393Z,95.08
2017-05-02T08:54:27.896Z,95.08
2017-05-02T08:54:53.384Z,94.51
2017-05-02T08:55:18.841Z,95.08
2017-05-02T08:55:44.294Z,94.51
2017-05-02T08:56:09.782Z,94.6
2017-05-02T08:56:35.290Z,94.84
2017-05-02T08:57:00.758Z,94.7
2017-05-02T08:57:26.231Z,94.79
2017-05-02T08:57:51.734Z,95.27
2017-05-02T08:58:17.234Z,95.22
2017-05-02T08:58:42.716Z,95.32
2017-05-02T08:59:08.192Z,95.7
2017-05-02T08:59:33.680Z,95.7
2017-05-02T08:59:59.152Z,96.17
2017-05-02T09:00:24.655Z,96.37
2017-05-02T09:00:50.111Z,96.66
2017-05-02T09:01:15.602Z,96.75
2017-05-02T09:01:41.079Z,96.27
2017-05-02T09:02:06.547Z,96.17
2017-05-02T09:02:32.015Z,96.17
2017-05-02T09:02:57.503Z,96.22
2017-05-02T09:03:22.957Z,96.27
2017-05-02T09:03:48.438Z,96.32
2017-05-02T09:04:13.932Z,96.32
2017-05-02T09:04:39.402Z,96.42
2017-05-02T09:05:04.891Z,95.84
2017-05-02T09:05:30.375Z,96.22
2017-05-02T09:05:55.852Z,96.13
2017-05-02T09:06:21.328Z,95.56
2017-05-02T09:06:46.798Z,94.79
2017-05-02T09:07:12.264Z,94.6
2017-05-02T09:07:37.782Z,94.02
2017-05-02T09:08:03.267Z,93.65
2017-05-02T09:08:28.734Z,93.45
2017-05-02T09:08:54.220Z,94.02
2017-05-02T09:09:19.722Z,93.84
2017-05-02T09:09:45.227Z,93.74
2017-05-02T09:10:10.707Z,93.93
2017-05-02T09:10:36.165Z,93.93
2017-05-02T09:11:01.652Z,93.93
2017-05-02T09:11:27.146Z,93.16
2017-05-02T09:11:52.633Z,92.88
2017-05-02T09:12:18.114Z,92.59
2017-05-02T09:12:43.585Z,92.79
2017-05-02T09:13:09.082Z,93.07
2017-05-02T09:13:34.569Z,93.36
2017-05-02T09:14:00.046Z,93.65
2017-05-02T09:14:25.542Z,93.36
2017-05-02T09:14:50.991Z,93.26
2017-05-02T09:15:16.493Z,93.36
2017-05-02T09:15:41.966Z,92.79
2017-05-02T09:16:07.415Z,92.88
2017-05-02T09:16:32.900Z,93.26
2017-05-02T09:16:58.382Z,93.4
2017-05-02T09:17:23.881Z,93.36
2017-05-02T09:17:49.360Z,93.16
2017-05-02T09:18:14.819Z,93.26
2017-05-02T09:18:40.312Z,93.69
2017-05-02T09:19:05.792Z,93.31
2017-05-02T09:19:31.260Z,93.69
2017-05-02T09:19:56.741Z,93.31
2017-05-02T09:20:22.204Z,93.31
2017-05-02T09:20:47.687Z,93.31
2017-05-02T09:21:13.157Z,93.21
2017-05-02T09:21:38.647Z,93.31
2017-05-02T09:22:04.124Z,93.21
2017-05-02T09:22:29.619Z,92.93
2017-05-02T09:22:55.091Z,92.93
2017-05-02T09:23:20.575Z,93.02
2017-05-02T09:23:46.064Z,92.93
2017-05-02T09:24:11.521Z,93.12
2017-05-02T09:24:37.003Z,92.74
2017-05-02T09:25:02.470Z,92.83
2017-05-02T09:25:27.967Z,92.45
2017-05-02T09:25:53.485Z,92.74
2017-05-02T09:26:19.007Z,93.4
2017-05-02T09:26:44.421Z,92.35
2017-05-02T09:27:09.878Z,92.54
2017-05-02T09:27:35.360Z,92.07
2017-05-02T09:28:00.809Z,92.25
2017-05-02T09:28:26.322Z,92.02
2017-05-02T09:28:51.759Z,91.83
2017-05-02T09:29:17.258Z,92.02